WWA3311 KTPA-CYUL
Flight info
| Callsign | WWA3311 |
|---|---|
| Flight time | 3h 15m |
| Altitude | 41000 |
| Route | BAYPO2 CAMJO Q99 POLYY DCT DADDS Q87 GEARS DCT BBOBO Q22 LLUND DCT CAM DCT JASDU DCT PBERG CARTR5 |
| Aircraft | E55P/M-SBDFGHJ2RWY/LB2 |
Departure
| Time | 2026-05-05 12:52 |
|---|---|
| Airport | Tampa International Airport (KTPA) |
Arrival
| Time | 2026-05-05 16:07 |
|---|---|
| Airport | Montreal / Pierre Elliott Trudeau International Airport (CYUL) |
| Time | Latitude | Longitude | Altitude | Speed | Heading |
|---|---|---|---|---|---|
| 2026-05-05 12:26 | 27.96782 | -82.52066 | 22 ft | 0 kts | 90° |
| 2026-05-05 12:47 | 27.96783 | -82.52048 | 23 ft | 9 kts | 76° |
| 2026-05-05 12:48 | 27.96842 | -82.52003 | 24 ft | 10 kts | 34° |
| 2026-05-05 12:48 | 27.96902 | -82.51973 | 24 ft | 9 kts | 339° |
| 2026-05-05 12:48 | 27.96924 | -82.52039 | 24 ft | 9 kts | 271° |
| 2026-05-05 12:48 | 27.96926 | -82.52116 | 23 ft | 10 kts | 272° |
| 2026-05-05 12:49 | 27.96929 | -82.52244 | 21 ft | 19 kts | 272° |
| 2026-05-05 12:49 | 27.96934 | -82.52402 | 21 ft | 19 kts | 270° |
| 2026-05-05 12:49 | 27.96938 | -82.52561 | 21 ft | 19 kts | 275° |
| 2026-05-05 12:49 | 27.96943 | -82.52721 | 18 ft | 18 kts | 258° |
| 2026-05-05 12:50 | 27.96832 | -82.52763 | 17 ft | 17 kts | 181° |
| 2026-05-05 12:50 | 27.96705 | -82.52764 | 16 ft | 18 kts | 181° |
| 2026-05-05 12:50 | 27.96563 | -82.52773 | 14 ft | 19 kts | 178° |
| 2026-05-05 12:50 | 27.96449 | -82.52791 | 14 ft | 5 kts | 235° |
| 2026-05-05 12:51 | 27.96443 | -82.52807 | 14 ft | 5 kts | 258° |
| 2026-05-05 12:51 | 27.96473 | -82.52891 | 13 ft | 16 kts | 340° |
| 2026-05-05 12:51 | 27.96676 | -82.52885 | 14 ft | 58 kts | 4° |
| 2026-05-05 12:51 | 27.97316 | -82.52869 | 20 ft | 124 kts | 2° |
| 2026-05-05 12:52 | 27.98225 | -82.52846 | 563 ft | 127 kts | 5° |
| 2026-05-05 12:52 | 27.99152 | -82.52808 | 1171 ft | 136 kts | 6° |
| 2026-05-05 12:52 | 28.00062 | -82.52864 | 1912 ft | 133 kts | 2° |
| 2026-05-05 12:52 | 28.01082 | -82.52824 | 2415 ft | 149 kts | 14° |
| 2026-05-05 12:53 | 28.02004 | -82.52604 | 3315 ft | 135 kts | 15° |
| 2026-05-05 12:53 | 28.03019 | -82.52574 | 3830 ft | 155 kts | 352° |
| 2026-05-05 12:53 | 28.04099 | -82.52780 | 4556 ft | 161 kts | 352° |
| 2026-05-05 12:53 | 28.05252 | -82.52974 | 5271 ft | 169 kts | 352° |
| 2026-05-05 12:54 | 28.07720 | -82.53288 | 6881 ft | 177 kts | 353° |
| 2026-05-05 12:54 | 28.09005 | -82.53380 | 7631 ft | 183 kts | 354° |
| 2026-05-05 12:54 | 28.10247 | -82.53458 | 8182 ft | 196 kts | 354° |
| 2026-05-05 12:55 | 28.10767 | -82.53485 | 8502 ft | 196 kts | 355° |
| 2026-05-05 12:55 | 28.12121 | -82.53830 | 9192 ft | 200 kts | 334° |
| 2026-05-05 12:55 | 28.13423 | -82.54280 | 9799 ft | 211 kts | 345° |
| 2026-05-05 12:55 | 28.14918 | -82.54592 | 10433 ft | 221 kts | 347° |
| 2026-05-05 12:56 | 28.16516 | -82.54874 | 11077 ft | 231 kts | 347° |
| 2026-05-05 12:56 | 28.18257 | -82.55164 | 11749 ft | 240 kts | 347° |
| 2026-05-05 12:56 | 28.19960 | -82.55441 | 12368 ft | 249 kts | 347° |
| 2026-05-05 12:56 | 28.21811 | -82.55738 | 13019 ft | 257 kts | 347° |
| 2026-05-05 12:57 | 28.23757 | -82.56051 | 13705 ft | 265 kts | 346° |
| 2026-05-05 12:57 | 28.25607 | -82.56351 | 14291 ft | 274 kts | 347° |
| 2026-05-05 12:57 | 28.27632 | -82.56679 | 14810 ft | 285 kts | 347° |
| 2026-05-05 12:57 | 28.29707 | -82.57012 | 15333 ft | 295 kts | 346° |
| 2026-05-05 12:58 | 28.31860 | -82.57359 | 15861 ft | 304 kts | 347° |
| 2026-05-05 12:58 | 28.34014 | -82.57709 | 16369 ft | 312 kts | 346° |
| 2026-05-05 12:58 | 28.36276 | -82.58063 | 16881 ft | 321 kts | 348° |
| 2026-05-05 12:58 | 28.38710 | -82.58128 | 17437 ft | 330 kts | 353° |
| 2026-05-05 12:59 | 28.41040 | -82.58196 | 17946 ft | 336 kts | 353° |
| 2026-05-05 12:59 | 28.43533 | -82.58254 | 18449 ft | 340 kts | 353° |
| 2026-05-05 12:59 | 28.46107 | -82.58319 | 18984 ft | 345 kts | 353° |
| 2026-05-05 13:00 | 28.51028 | -82.58443 | 19945 ft | 351 kts | 352° |
| 2026-05-05 13:00 | 28.53557 | -82.58504 | 20427 ft | 353 kts | 352° |
| 2026-05-05 13:01 | 28.61283 | -82.58697 | 21908 ft | 356 kts | 351° |
| 2026-05-05 13:01 | 28.63977 | -82.58765 | 22420 ft | 355 kts | 351° |
| 2026-05-05 13:01 | 28.66436 | -82.58826 | 22894 ft | 355 kts | 351° |
| 2026-05-05 13:01 | 28.68755 | -82.59077 | 23361 ft | 349 kts | 345° |
| 2026-05-05 13:02 | 28.70924 | -82.59387 | 23810 ft | 349 kts | 346° |
| 2026-05-05 13:02 | 28.73536 | -82.59749 | 24354 ft | 348 kts | 346° |
| 2026-05-05 13:02 | 28.75963 | -82.60089 | 24869 ft | 346 kts | 345° |
| 2026-05-05 13:02 | 28.78033 | -82.60378 | 25312 ft | 345 kts | 345° |
| 2026-05-05 13:03 | 28.80569 | -82.60735 | 25855 ft | 343 kts | 346° |
| 2026-05-05 13:03 | 28.83115 | -82.61085 | 26398 ft | 342 kts | 346° |
| 2026-05-05 13:03 | 28.85484 | -82.61414 | 26906 ft | 340 kts | 346° |
| 2026-05-05 13:03 | 28.87924 | -82.61759 | 27434 ft | 338 kts | 345° |
| 2026-05-05 13:04 | 28.90471 | -82.62113 | 27997 ft | 335 kts | 345° |
| 2026-05-05 13:04 | 28.92783 | -82.62432 | 28499 ft | 333 kts | 345° |
| 2026-05-05 13:04 | 28.95147 | -82.62765 | 29029 ft | 331 kts | 345° |
| 2026-05-05 13:04 | 28.97593 | -82.63106 | 29573 ft | 328 kts | 346° |
| 2026-05-05 13:05 | 28.99878 | -82.63426 | 30083 ft | 325 kts | 345° |
| 2026-05-05 13:05 | 29.02169 | -82.63745 | 30598 ft | 322 kts | 345° |
| 2026-05-05 13:05 | 29.04427 | -82.64064 | 31108 ft | 319 kts | 345° |
| 2026-05-05 13:05 | 29.06786 | -82.64389 | 31652 ft | 315 kts | 344° |
| 2026-05-05 13:06 | 29.08960 | -82.64694 | 32147 ft | 311 kts | 345° |
| 2026-05-05 13:06 | 29.10559 | -82.64926 | 32528 ft | 308 kts | 345° |
| 2026-05-05 13:06 | 29.11462 | -82.65051 | 32750 ft | 307 kts | 344° |
| 2026-05-05 13:06 | 29.13094 | -82.65273 | 33158 ft | 303 kts | 343° |
| 2026-05-05 13:07 | 29.15204 | -82.65569 | 33740 ft | 299 kts | 343° |
| 2026-05-05 13:07 | 29.17127 | -82.65840 | 34299 ft | 294 kts | 343° |
| 2026-05-05 13:07 | 29.19215 | -82.66132 | 34905 ft | 290 kts | 343° |
| 2026-05-05 13:07 | 29.21291 | -82.66430 | 35526 ft | 285 kts | 342° |
| 2026-05-05 13:08 | 29.23240 | -82.66692 | 36118 ft | 280 kts | 342° |
| 2026-05-05 13:08 | 29.25211 | -82.66980 | 36725 ft | 275 kts | 342° |
| 2026-05-05 13:08 | 29.27172 | -82.67242 | 37339 ft | 269 kts | 341° |
| 2026-05-05 13:08 | 29.29040 | -82.67512 | 37947 ft | 263 kts | 341° |
| 2026-05-05 13:09 | 29.30854 | -82.67767 | 38573 ft | 256 kts | 340° |
| 2026-05-05 13:09 | 29.32637 | -82.68015 | 39210 ft | 249 kts | 341° |
| 2026-05-05 13:09 | 29.34399 | -82.68271 | 39886 ft | 242 kts | 339° |
| 2026-05-05 13:09 | 29.36022 | -82.68493 | 40525 ft | 234 kts | 341° |
| 2026-05-05 13:10 | 29.37641 | -82.68724 | 41053 ft | 230 kts | 339° |
| 2026-05-05 13:10 | 29.39311 | -82.68974 | 41089 ft | 237 kts | 339° |
| 2026-05-05 13:10 | 29.41018 | -82.69221 | 41078 ft | 248 kts | 340° |
| 2026-05-05 13:10 | 29.42799 | -82.69336 | 41094 ft | 264 kts | 347° |
| 2026-05-05 13:11 | 29.44698 | -82.69308 | 41068 ft | 273 kts | 346° |
| 2026-05-05 13:11 | 29.46676 | -82.69298 | 41073 ft | 281 kts | 347° |
| 2026-05-05 13:11 | 29.48688 | -82.69287 | 41072 ft | 290 kts | 347° |
| 2026-05-05 13:11 | 29.50751 | -82.69270 | 41087 ft | 297 kts | 348° |
| 2026-05-05 13:12 | 29.55084 | -82.69240 | 41085 ft | 313 kts | 347° |
| 2026-05-05 13:12 | 29.59633 | -82.69221 | 41078 ft | 328 kts | 348° |
| 2026-05-05 13:13 | 29.64323 | -82.69186 | 41083 ft | 341 kts | 348° |
| 2026-05-05 13:13 | 29.69338 | -82.69149 | 41087 ft | 351 kts | 349° |
| 2026-05-05 13:14 | 29.74292 | -82.69116 | 41084 ft | 353 kts | 349° |
| 2026-05-05 13:14 | 29.79357 | -82.69089 | 41067 ft | 355 kts | 349° |
| 2026-05-05 13:15 | 29.84365 | -82.69059 | 41075 ft | 356 kts | 349° |
| 2026-05-05 13:15 | 29.89489 | -82.69021 | 41078 ft | 356 kts | 349° |
| 2026-05-05 13:16 | 29.94515 | -82.68992 | 41071 ft | 357 kts | 349° |
| 2026-05-05 13:16 | 29.99579 | -82.68958 | 41067 ft | 357 kts | 350° |
| 2026-05-05 13:17 | 30.04682 | -82.68928 | 41070 ft | 356 kts | 349° |
| 2026-05-05 13:17 | 30.09710 | -82.68890 | 41066 ft | 356 kts | 348° |
| 2026-05-05 13:18 | 30.14339 | -82.68864 | 41091 ft | 356 kts | 349° |
| 2026-05-05 13:18 | 30.19332 | -82.68833 | 41091 ft | 357 kts | 349° |
| 2026-05-05 13:19 | 30.24502 | -82.68803 | 41082 ft | 358 kts | 348° |
| 2026-05-05 13:19 | 30.29529 | -82.68770 | 41074 ft | 358 kts | 349° |
| 2026-05-05 13:20 | 30.34646 | -82.68735 | 41075 ft | 359 kts | 349° |
| 2026-05-05 13:20 | 30.39695 | -82.68703 | 41070 ft | 357 kts | 349° |
| 2026-05-05 13:21 | 30.44771 | -82.68670 | 41077 ft | 351 kts | 349° |
| 2026-05-05 13:21 | 30.49743 | -82.68642 | 41074 ft | 345 kts | 348° |
| 2026-05-05 13:22 | 30.52268 | -82.68362 | 41086 ft | 358 kts | 358° |
| 2026-05-05 13:22 | 30.54713 | -82.67815 | 41068 ft | 353 kts | 357° |
| 2026-05-05 13:22 | 30.59670 | -82.66766 | 41083 ft | 349 kts | 357° |
| 2026-05-05 13:23 | 30.64488 | -82.65743 | 41074 ft | 345 kts | 356° |
| 2026-05-05 13:23 | 30.69354 | -82.64702 | 41075 ft | 342 kts | 356° |
| 2026-05-05 13:24 | 30.74098 | -82.63699 | 41072 ft | 338 kts | 356° |
| 2026-05-05 13:24 | 30.78777 | -82.62693 | 41093 ft | 335 kts | 356° |
| 2026-05-05 13:25 | 30.83426 | -82.61701 | 41074 ft | 332 kts | 356° |
| 2026-05-05 13:25 | 30.88039 | -82.60715 | 41071 ft | 330 kts | 356° |
| 2026-05-05 13:26 | 30.92706 | -82.59713 | 41080 ft | 334 kts | 356° |
| 2026-05-05 13:26 | 30.97348 | -82.58723 | 41079 ft | 338 kts | 356° |
| 2026-05-05 13:27 | 31.02183 | -82.57687 | 41092 ft | 341 kts | 356° |
| 2026-05-05 13:27 | 31.06845 | -82.56677 | 41100 ft | 343 kts | 356° |
| 2026-05-05 13:28 | 31.09270 | -82.55955 | 41069 ft | 366 kts | 9° |
| 2026-05-05 13:28 | 31.11046 | -82.54856 | 41117 ft | 375 kts | 13° |
| 2026-05-05 13:28 | 31.15113 | -82.52393 | 41102 ft | 377 kts | 12° |
| 2026-05-05 13:29 | 31.19843 | -82.49523 | 41103 ft | 381 kts | 12° |
| 2026-05-05 13:29 | 31.24600 | -82.46639 | 41111 ft | 384 kts | 12° |
| 2026-05-05 13:30 | 31.29454 | -82.43690 | 41105 ft | 388 kts | 13° |
| 2026-05-05 13:30 | 31.34258 | -82.40756 | 41095 ft | 391 kts | 12° |
| 2026-05-05 13:31 | 31.39185 | -82.37761 | 41108 ft | 393 kts | 13° |
| 2026-05-05 13:31 | 31.44090 | -82.34766 | 41097 ft | 396 kts | 14° |
| 2026-05-05 13:32 | 31.47835 | -82.32477 | 41089 ft | 396 kts | 14° |
| 2026-05-05 13:32 | 31.52787 | -82.29446 | 41079 ft | 397 kts | 13° |
| 2026-05-05 13:33 | 31.57884 | -82.26326 | 41093 ft | 397 kts | 13° |
| 2026-05-05 13:33 | 31.62859 | -82.23271 | 41086 ft | 397 kts | 14° |
| 2026-05-05 13:34 | 31.67807 | -82.20237 | 41066 ft | 398 kts | 14° |
| 2026-05-05 13:34 | 31.72804 | -82.17171 | 41084 ft | 398 kts | 14° |
| 2026-05-05 13:35 | 31.77776 | -82.14113 | 41071 ft | 399 kts | 14° |
| 2026-05-05 13:35 | 31.82805 | -82.11009 | 41082 ft | 399 kts | 14° |
| 2026-05-05 13:36 | 31.87768 | -82.07954 | 41091 ft | 398 kts | 14° |
| 2026-05-05 13:36 | 31.92751 | -82.04872 | 41089 ft | 398 kts | 15° |
| 2026-05-05 13:37 | 31.97751 | -82.01781 | 41087 ft | 398 kts | 15° |
| 2026-05-05 13:37 | 32.02693 | -81.98724 | 41086 ft | 398 kts | 15° |
| 2026-05-05 13:38 | 32.07701 | -81.95616 | 41090 ft | 398 kts | 15° |
| 2026-05-05 13:38 | 32.11518 | -81.93252 | 41115 ft | 398 kts | 15° |
| 2026-05-05 13:39 | 32.16590 | -81.90176 | 41109 ft | 397 kts | 14° |
| 2026-05-05 13:39 | 32.21572 | -81.87252 | 41105 ft | 399 kts | 14° |
| 2026-05-05 13:40 | 32.26662 | -81.84270 | 41099 ft | 400 kts | 14° |
| 2026-05-05 13:40 | 32.31657 | -81.81332 | 41108 ft | 401 kts | 14° |
| 2026-05-05 13:41 | 32.36797 | -81.78309 | 41103 ft | 403 kts | 15° |
| 2026-05-05 13:41 | 32.41811 | -81.75355 | 41107 ft | 404 kts | 15° |
| 2026-05-05 13:42 | 32.46969 | -81.72311 | 41104 ft | 405 kts | 15° |
| 2026-05-05 13:42 | 32.51996 | -81.69347 | 41102 ft | 406 kts | 15° |
| 2026-05-05 13:43 | 32.57156 | -81.66297 | 41103 ft | 403 kts | 15° |
| 2026-05-05 13:43 | 32.62197 | -81.63308 | 41107 ft | 400 kts | 15° |
| 2026-05-05 13:44 | 32.67210 | -81.60342 | 41104 ft | 398 kts | 15° |
| 2026-05-05 13:44 | 32.72213 | -81.57368 | 41114 ft | 395 kts | 15° |
| 2026-05-05 13:45 | 32.77185 | -81.54413 | 41106 ft | 393 kts | 15° |
| 2026-05-05 13:45 | 32.82190 | -81.51432 | 41096 ft | 392 kts | 15° |
| 2026-05-05 13:46 | 32.87117 | -81.48498 | 41099 ft | 390 kts | 15° |
| 2026-05-05 13:46 | 32.92043 | -81.45561 | 41093 ft | 389 kts | 15° |
| 2026-05-05 13:47 | 32.96943 | -81.42637 | 41096 ft | 387 kts | 15° |
| 2026-05-05 13:47 | 33.01833 | -81.39716 | 41102 ft | 387 kts | 15° |
| 2026-05-05 13:48 | 33.06680 | -81.36809 | 41102 ft | 385 kts | 15° |
| 2026-05-05 13:48 | 33.10701 | -81.34396 | 41097 ft | 385 kts | 16° |
| 2026-05-05 13:49 | 33.14675 | -81.32015 | 41102 ft | 384 kts | 16° |
| 2026-05-05 13:49 | 33.19425 | -81.29164 | 41101 ft | 383 kts | 16° |
| 2026-05-05 13:50 | 33.24259 | -81.26254 | 41105 ft | 382 kts | 16° |
| 2026-05-05 13:50 | 33.29053 | -81.23368 | 41099 ft | 382 kts | 16° |
| 2026-05-05 13:51 | 33.33879 | -81.20460 | 41101 ft | 382 kts | 16° |
| 2026-05-05 13:51 | 33.38649 | -81.17577 | 41098 ft | 382 kts | 16° |
| 2026-05-05 13:52 | 33.43475 | -81.14661 | 41094 ft | 381 kts | 16° |
| 2026-05-05 13:52 | 33.48218 | -81.11790 | 41094 ft | 381 kts | 16° |
| 2026-05-05 13:53 | 33.53045 | -81.08865 | 41087 ft | 381 kts | 16° |
| 2026-05-05 13:53 | 33.57794 | -81.05984 | 41106 ft | 380 kts | 16° |
| 2026-05-05 13:54 | 33.62593 | -81.03071 | 41106 ft | 380 kts | 16° |
| 2026-05-05 13:54 | 33.67300 | -81.00205 | 41091 ft | 380 kts | 17° |
| 2026-05-05 13:55 | 33.72115 | -80.97276 | 41100 ft | 380 kts | 17° |
| 2026-05-05 13:55 | 33.76836 | -80.94394 | 41096 ft | 380 kts | 16° |
| 2026-05-05 13:56 | 33.81635 | -80.91466 | 41096 ft | 379 kts | 17° |
| 2026-05-05 13:56 | 33.86320 | -80.88296 | 41095 ft | 393 kts | 27° |
| 2026-05-05 13:57 | 33.90672 | -80.84187 | 41091 ft | 393 kts | 27° |
| 2026-05-05 13:57 | 33.95073 | -80.80069 | 41093 ft | 393 kts | 27° |
| 2026-05-05 13:58 | 33.99411 | -80.76000 | 41087 ft | 393 kts | 26° |
| 2026-05-05 13:58 | 34.03802 | -80.71873 | 41082 ft | 393 kts | 27° |
| 2026-05-05 13:59 | 34.10331 | -80.65724 | 41099 ft | 393 kts | 27° |
| 2026-05-05 14:00 | 34.15456 | -80.60893 | 41110 ft | 393 kts | 27° |
| 2026-05-05 14:00 | 34.20577 | -80.56050 | 41106 ft | 394 kts | 27° |
| 2026-05-05 14:01 | 34.24945 | -80.51921 | 41104 ft | 395 kts | 27° |
| 2026-05-05 14:01 | 34.29367 | -80.47826 | 41112 ft | 394 kts | 27° |
| 2026-05-05 14:02 | 34.33795 | -80.43747 | 41104 ft | 395 kts | 27° |
| 2026-05-05 14:02 | 34.38216 | -80.39664 | 41100 ft | 396 kts | 26° |
| 2026-05-05 14:03 | 34.42680 | -80.35543 | 41095 ft | 396 kts | 27° |
| 2026-05-05 14:03 | 34.45872 | -80.32585 | 41086 ft | 396 kts | 27° |
| 2026-05-05 14:04 | 34.50449 | -80.28348 | 41092 ft | 396 kts | 27° |
| 2026-05-05 14:04 | 34.54900 | -80.24216 | 41097 ft | 396 kts | 27° |
| 2026-05-05 14:05 | 34.59353 | -80.20081 | 41093 ft | 395 kts | 27° |
| 2026-05-05 14:05 | 34.63712 | -80.16026 | 41094 ft | 395 kts | 27° |
| 2026-05-05 14:06 | 34.68170 | -80.11876 | 41091 ft | 394 kts | 27° |
| 2026-05-05 14:06 | 34.72534 | -80.07813 | 41092 ft | 394 kts | 27° |
| 2026-05-05 14:07 | 34.76984 | -80.03674 | 41087 ft | 394 kts | 27° |
| 2026-05-05 14:07 | 34.81289 | -79.99517 | 41074 ft | 405 kts | 37° |
| 2026-05-05 14:08 | 34.84972 | -79.94037 | 41100 ft | 409 kts | 41° |
| 2026-05-05 14:08 | 34.88583 | -79.88640 | 41094 ft | 409 kts | 41° |
| 2026-05-05 14:09 | 34.92271 | -79.83126 | 41100 ft | 409 kts | 41° |
| 2026-05-05 14:09 | 34.95857 | -79.77750 | 41099 ft | 409 kts | 41° |
| 2026-05-05 14:10 | 34.99530 | -79.72241 | 41103 ft | 409 kts | 41° |
| 2026-05-05 14:10 | 35.03150 | -79.66801 | 41094 ft | 409 kts | 41° |
| 2026-05-05 14:11 | 35.06827 | -79.61262 | 41097 ft | 410 kts | 41° |
| 2026-05-05 14:11 | 35.10230 | -79.56135 | 41097 ft | 410 kts | 42° |
| 2026-05-05 14:12 | 35.13667 | -79.50942 | 41115 ft | 411 kts | 42° |
| 2026-05-05 14:12 | 35.17402 | -79.45299 | 41111 ft | 412 kts | 42° |
| 2026-05-05 14:13 | 35.21069 | -79.39743 | 41110 ft | 413 kts | 42° |
| 2026-05-05 14:13 | 35.24758 | -79.34144 | 41113 ft | 414 kts | 43° |
| 2026-05-05 14:14 | 35.28291 | -79.28782 | 41104 ft | 414 kts | 43° |
| 2026-05-05 14:14 | 35.32000 | -79.23136 | 41090 ft | 415 kts | 43° |
| 2026-05-05 14:15 | 35.35656 | -79.17557 | 41086 ft | 415 kts | 43° |
| 2026-05-05 14:15 | 35.39315 | -79.11974 | 41094 ft | 415 kts | 43° |
| 2026-05-05 14:16 | 35.42987 | -79.06358 | 41092 ft | 415 kts | 43° |
| 2026-05-05 14:16 | 35.46621 | -79.00791 | 41096 ft | 415 kts | 43° |
| 2026-05-05 14:17 | 35.50297 | -78.95157 | 41097 ft | 415 kts | 44° |
| 2026-05-05 14:17 | 35.53888 | -78.89628 | 41092 ft | 416 kts | 43° |
| 2026-05-05 14:18 | 35.57578 | -78.83949 | 41097 ft | 416 kts | 43° |
| 2026-05-05 14:18 | 35.61301 | -78.78661 | 41074 ft | 403 kts | 28° |
| 2026-05-05 14:19 | 35.66156 | -78.75228 | 41103 ft | 395 kts | 22° |
| 2026-05-05 14:19 | 35.70958 | -78.71892 | 41098 ft | 396 kts | 22° |
| 2026-05-05 14:20 | 35.75796 | -78.68527 | 41098 ft | 397 kts | 22° |
| 2026-05-05 14:20 | 35.80632 | -78.65157 | 41098 ft | 397 kts | 22° |
| 2026-05-05 14:21 | 35.85473 | -78.61776 | 41104 ft | 398 kts | 22° |
| 2026-05-05 14:21 | 35.90391 | -78.58343 | 41090 ft | 399 kts | 22° |
| 2026-05-05 14:22 | 35.95230 | -78.54956 | 41100 ft | 400 kts | 22° |
| 2026-05-05 14:22 | 36.00189 | -78.51483 | 41102 ft | 400 kts | 22° |
| 2026-05-05 14:23 | 36.05067 | -78.48055 | 41093 ft | 401 kts | 22° |
| 2026-05-05 14:23 | 36.10023 | -78.44576 | 41090 ft | 401 kts | 22° |
| 2026-05-05 14:24 | 36.14356 | -78.41528 | 41091 ft | 403 kts | 22° |
| 2026-05-05 14:24 | 36.19229 | -78.38090 | 41100 ft | 404 kts | 22° |
| 2026-05-05 14:25 | 36.24182 | -78.34597 | 41095 ft | 405 kts | 23° |
| 2026-05-05 14:25 | 36.28565 | -78.31497 | 41084 ft | 406 kts | 23° |
| 2026-05-05 14:26 | 36.33421 | -78.28064 | 41076 ft | 406 kts | 23° |
| 2026-05-05 14:26 | 36.38423 | -78.24236 | 41068 ft | 417 kts | 36° |
| 2026-05-05 14:27 | 36.42728 | -78.19167 | 41068 ft | 419 kts | 37° |
| 2026-05-05 14:27 | 36.47023 | -78.14123 | 41076 ft | 419 kts | 37° |
| 2026-05-05 14:28 | 36.51363 | -78.09016 | 41076 ft | 420 kts | 37° |
| 2026-05-05 14:28 | 36.55657 | -78.03960 | 41075 ft | 421 kts | 37° |
| 2026-05-05 14:29 | 36.60012 | -77.98817 | 41083 ft | 421 kts | 37° |
| 2026-05-05 14:29 | 36.64279 | -77.93776 | 41078 ft | 422 kts | 37° |
| 2026-05-05 14:30 | 36.68697 | -77.88545 | 41082 ft | 423 kts | 37° |
| 2026-05-05 14:30 | 36.72930 | -77.83527 | 41071 ft | 424 kts | 38° |
| 2026-05-05 14:31 | 36.77327 | -77.78304 | 41066 ft | 425 kts | 38° |
| 2026-05-05 14:31 | 36.81652 | -77.73161 | 41060 ft | 426 kts | 38° |
| 2026-05-05 14:32 | 36.86014 | -77.67971 | 41062 ft | 426 kts | 38° |
| 2026-05-05 14:32 | 36.90362 | -77.62782 | 41047 ft | 427 kts | 38° |
| 2026-05-05 14:33 | 36.94722 | -77.57580 | 41051 ft | 428 kts | 38° |
| 2026-05-05 14:33 | 36.99093 | -77.52347 | 41049 ft | 428 kts | 38° |
| 2026-05-05 14:34 | 37.03407 | -77.47179 | 41054 ft | 429 kts | 38° |
| 2026-05-05 14:34 | 37.07824 | -77.41877 | 41053 ft | 430 kts | 38° |
| 2026-05-05 14:35 | 37.10095 | -77.39368 | 41026 ft | 424 kts | 27° |
| 2026-05-05 14:35 | 37.11678 | -77.38357 | 41061 ft | 414 kts | 15° |
| 2026-05-05 14:35 | 37.16602 | -77.36247 | 41044 ft | 414 kts | 13° |
| 2026-05-05 14:36 | 37.21686 | -77.34045 | 41050 ft | 414 kts | 14° |
| 2026-05-05 14:36 | 37.27265 | -77.31624 | 41039 ft | 415 kts | 14° |
| 2026-05-05 14:37 | 37.32795 | -77.29220 | 41034 ft | 415 kts | 14° |
| 2026-05-05 14:37 | 37.38418 | -77.26771 | 41040 ft | 416 kts | 14° |
| 2026-05-05 14:38 | 37.43908 | -77.24377 | 41041 ft | 416 kts | 14° |
| 2026-05-05 14:38 | 37.49082 | -77.22120 | 41040 ft | 417 kts | 14° |
| 2026-05-05 14:39 | 37.54620 | -77.19698 | 41034 ft | 417 kts | 15° |
| 2026-05-05 14:39 | 37.60168 | -77.17265 | 41036 ft | 418 kts | 15° |
| 2026-05-05 14:40 | 37.65780 | -77.14805 | 41024 ft | 420 kts | 15° |
| 2026-05-05 14:40 | 37.71177 | -77.11976 | 41034 ft | 426 kts | 25° |
| 2026-05-05 14:41 | 37.76514 | -77.08274 | 41017 ft | 426 kts | 24° |
| 2026-05-05 14:41 | 37.81738 | -77.04659 | 41035 ft | 427 kts | 25° |
| 2026-05-05 14:42 | 37.87064 | -77.00968 | 41014 ft | 428 kts | 25° |
| 2026-05-05 14:42 | 37.92304 | -76.97333 | 41029 ft | 429 kts | 25° |
| 2026-05-05 14:43 | 37.97648 | -76.93616 | 41027 ft | 430 kts | 25° |
| 2026-05-05 14:43 | 38.02965 | -76.89915 | 41017 ft | 431 kts | 25° |
| 2026-05-05 14:44 | 38.08291 | -76.86200 | 41014 ft | 431 kts | 25° |
| 2026-05-05 14:44 | 38.13506 | -76.82554 | 41014 ft | 432 kts | 25° |
| 2026-05-05 14:45 | 38.18671 | -76.78940 | 41005 ft | 433 kts | 25° |
| 2026-05-05 14:45 | 38.24135 | -76.75094 | 40998 ft | 434 kts | 27° |
| 2026-05-05 14:46 | 38.28906 | -76.70140 | 41007 ft | 439 kts | 37° |
| 2026-05-05 14:46 | 38.33597 | -76.65073 | 41003 ft | 439 kts | 37° |
| 2026-05-05 14:47 | 38.38356 | -76.59924 | 41005 ft | 440 kts | 37° |
| 2026-05-05 14:47 | 38.43031 | -76.54865 | 41001 ft | 440 kts | 36° |
| 2026-05-05 14:48 | 38.47723 | -76.49835 | 40998 ft | 441 kts | 37° |
| 2026-05-05 14:48 | 38.52481 | -76.44722 | 41005 ft | 441 kts | 37° |
| 2026-05-05 14:49 | 38.57177 | -76.39671 | 41002 ft | 441 kts | 37° |
| 2026-05-05 14:49 | 38.61876 | -76.34602 | 41000 ft | 442 kts | 37° |
| 2026-05-05 14:50 | 38.66467 | -76.29642 | 40989 ft | 442 kts | 37° |
| 2026-05-05 14:50 | 38.71276 | -76.24442 | 40993 ft | 442 kts | 37° |
| 2026-05-05 14:51 | 38.75992 | -76.19329 | 40988 ft | 442 kts | 37° |
| 2026-05-05 14:51 | 38.80713 | -76.14203 | 40990 ft | 443 kts | 38° |
| 2026-05-05 14:52 | 38.85447 | -76.09053 | 40998 ft | 442 kts | 38° |
| 2026-05-05 14:52 | 38.90182 | -76.03893 | 40998 ft | 442 kts | 38° |
| 2026-05-05 14:53 | 38.94823 | -75.98822 | 40995 ft | 443 kts | 37° |
| 2026-05-05 14:53 | 38.99486 | -75.93402 | 40990 ft | 443 kts | 40° |
| 2026-05-05 14:54 | 39.04028 | -75.87997 | 40990 ft | 443 kts | 40° |
| 2026-05-05 14:54 | 39.08645 | -75.82491 | 40984 ft | 444 kts | 40° |
| 2026-05-05 14:55 | 39.12777 | -75.77554 | 40980 ft | 444 kts | 40° |
| 2026-05-05 14:55 | 39.17439 | -75.71979 | 40984 ft | 444 kts | 40° |
| 2026-05-05 14:56 | 39.22018 | -75.66487 | 40979 ft | 445 kts | 40° |
| 2026-05-05 14:56 | 39.26611 | -75.60976 | 40972 ft | 445 kts | 40° |
| 2026-05-05 14:57 | 39.31151 | -75.55514 | 40962 ft | 446 kts | 40° |
| 2026-05-05 14:57 | 39.35725 | -75.50000 | 40961 ft | 447 kts | 40° |
| 2026-05-05 14:58 | 39.40253 | -75.44532 | 40959 ft | 447 kts | 40° |
| 2026-05-05 14:58 | 39.44879 | -75.38932 | 40959 ft | 447 kts | 40° |
| 2026-05-05 14:59 | 39.49121 | -75.33792 | 40976 ft | 447 kts | 41° |
| 2026-05-05 14:59 | 39.53599 | -75.28354 | 40964 ft | 448 kts | 41° |
| 2026-05-05 15:00 | 39.57420 | -75.23704 | 40963 ft | 448 kts | 41° |
| 2026-05-05 15:00 | 39.62781 | -75.17172 | 40961 ft | 448 kts | 41° |
| 2026-05-05 15:01 | 39.67369 | -75.11571 | 40965 ft | 449 kts | 41° |
| 2026-05-05 15:01 | 39.72071 | -75.06260 | 40959 ft | 448 kts | 38° |
| 2026-05-05 15:02 | 39.76774 | -75.00974 | 40973 ft | 448 kts | 38° |
| 2026-05-05 15:02 | 39.81487 | -74.95656 | 40972 ft | 449 kts | 38° |
| 2026-05-05 15:03 | 39.86153 | -74.90381 | 40961 ft | 451 kts | 38° |
| 2026-05-05 15:03 | 39.91104 | -74.84982 | 40963 ft | 449 kts | 32° |
| 2026-05-05 15:04 | 39.96262 | -74.80277 | 40957 ft | 450 kts | 32° |
| 2026-05-05 15:04 | 40.01257 | -74.75680 | 40967 ft | 451 kts | 32° |
| 2026-05-05 15:05 | 40.05921 | -74.70150 | 40969 ft | 455 kts | 46° |
| 2026-05-05 15:05 | 40.08145 | -74.66950 | 40959 ft | 455 kts | 45° |
| 2026-05-05 15:06 | 40.11721 | -74.61803 | 40960 ft | 456 kts | 45° |
| 2026-05-05 15:06 | 40.15913 | -74.55761 | 40950 ft | 457 kts | 46° |
| 2026-05-05 15:07 | 40.20234 | -74.49567 | 40947 ft | 456 kts | 42° |
| 2026-05-05 15:07 | 40.25082 | -74.44340 | 40944 ft | 454 kts | 37° |
| 2026-05-05 15:08 | 40.30061 | -74.39027 | 40937 ft | 454 kts | 37° |
| 2026-05-05 15:08 | 40.34905 | -74.33844 | 40935 ft | 455 kts | 37° |
| 2026-05-05 15:09 | 40.39839 | -74.28551 | 40941 ft | 454 kts | 37° |
| 2026-05-05 15:09 | 40.44778 | -74.23246 | 40928 ft | 455 kts | 37° |
| 2026-05-05 15:10 | 40.49685 | -74.17962 | 40931 ft | 455 kts | 37° |
| 2026-05-05 15:10 | 40.54564 | -74.12700 | 40932 ft | 456 kts | 37° |
| 2026-05-05 15:11 | 40.59522 | -74.07342 | 40923 ft | 456 kts | 37° |
| 2026-05-05 15:11 | 40.64286 | -74.02180 | 40932 ft | 456 kts | 37° |
| 2026-05-05 15:12 | 40.69163 | -73.96887 | 40929 ft | 457 kts | 37° |
| 2026-05-05 15:12 | 40.74115 | -73.91504 | 40927 ft | 457 kts | 37° |
| 2026-05-05 15:13 | 40.78981 | -73.86204 | 40924 ft | 457 kts | 37° |
| 2026-05-05 15:13 | 40.83801 | -73.80945 | 40941 ft | 457 kts | 37° |
| 2026-05-05 15:13 | 40.86467 | -73.78589 | 40905 ft | 452 kts | 20° |
| 2026-05-05 15:14 | 40.89521 | -73.77552 | 40946 ft | 443 kts | 4° |
| 2026-05-05 15:14 | 40.95489 | -73.76416 | 40920 ft | 445 kts | 5° |
| 2026-05-05 15:15 | 41.01583 | -73.75201 | 40927 ft | 446 kts | 5° |
| 2026-05-05 15:15 | 41.07826 | -73.73953 | 40916 ft | 447 kts | 5° |
| 2026-05-05 15:16 | 41.13411 | -73.72835 | 40920 ft | 447 kts | 5° |
| 2026-05-05 15:16 | 41.19393 | -73.71632 | 40915 ft | 447 kts | 5° |
| 2026-05-05 15:17 | 41.25602 | -73.70383 | 40913 ft | 447 kts | 5° |
| 2026-05-05 15:17 | 41.31674 | -73.69157 | 40911 ft | 447 kts | 5° |
| 2026-05-05 15:18 | 41.37866 | -73.67910 | 40915 ft | 448 kts | 5° |
| 2026-05-05 15:18 | 41.44120 | -73.66644 | 40907 ft | 449 kts | 5° |
| 2026-05-05 15:19 | 41.50297 | -73.65391 | 40902 ft | 449 kts | 5° |
| 2026-05-05 15:19 | 41.56502 | -73.64130 | 40900 ft | 450 kts | 5° |
| 2026-05-05 15:20 | 41.62774 | -73.62852 | 40894 ft | 451 kts | 5° |
| 2026-05-05 15:20 | 41.68935 | -73.61599 | 40887 ft | 451 kts | 5° |
| 2026-05-05 15:21 | 41.75271 | -73.60302 | 40878 ft | 452 kts | 5° |
| 2026-05-05 15:21 | 41.81527 | -73.59020 | 40874 ft | 452 kts | 5° |
| 2026-05-05 15:22 | 41.87802 | -73.57738 | 40868 ft | 448 kts | 5° |
| 2026-05-05 15:22 | 41.94074 | -73.56448 | 40862 ft | 443 kts | 5° |
| 2026-05-05 15:23 | 42.00147 | -73.55198 | 40865 ft | 438 kts | 5° |
| 2026-05-05 15:23 | 42.06214 | -73.53947 | 40880 ft | 434 kts | 4° |
| 2026-05-05 15:24 | 42.11900 | -73.52768 | 40869 ft | 431 kts | 4° |
| 2026-05-05 15:24 | 42.17936 | -73.51517 | 40867 ft | 428 kts | 4° |
| 2026-05-05 15:25 | 42.24084 | -73.50245 | 40861 ft | 426 kts | 4° |
| 2026-05-05 15:25 | 42.30029 | -73.49009 | 40856 ft | 424 kts | 5° |
| 2026-05-05 15:26 | 42.36186 | -73.47722 | 40866 ft | 423 kts | 4° |
| 2026-05-05 15:26 | 42.42080 | -73.46495 | 40846 ft | 423 kts | 4° |
| 2026-05-05 15:27 | 42.48184 | -73.45219 | 40857 ft | 422 kts | 4° |
| 2026-05-05 15:27 | 42.54121 | -73.43977 | 40841 ft | 420 kts | 4° |
| 2026-05-05 15:28 | 42.60166 | -73.42706 | 40854 ft | 420 kts | 4° |
| 2026-05-05 15:28 | 42.66315 | -73.41409 | 40840 ft | 420 kts | 4° |
| 2026-05-05 15:29 | 42.72355 | -73.40140 | 40838 ft | 420 kts | 4° |
| 2026-05-05 15:29 | 42.78410 | -73.38860 | 40826 ft | 420 kts | 3° |
| 2026-05-05 15:30 | 42.84533 | -73.37563 | 40844 ft | 420 kts | 4° |
| 2026-05-05 15:30 | 42.90495 | -73.36303 | 40830 ft | 420 kts | 3° |
| 2026-05-05 15:31 | 42.96726 | -73.34975 | 40842 ft | 420 kts | 4° |
| 2026-05-05 15:31 | 43.01926 | -73.34606 | 40836 ft | 411 kts | 351° |
| 2026-05-05 15:32 | 43.08021 | -73.35164 | 40805 ft | 411 kts | 351° |
| 2026-05-05 15:32 | 43.12443 | -73.35559 | 40788 ft | 411 kts | 351° |
| 2026-05-05 15:32 | 43.15465 | -73.35834 | 40233 ft | 420 kts | 351° |
| 2026-05-05 15:33 | 43.18700 | -73.36118 | 39555 ft | 417 kts | 351° |
| 2026-05-05 15:33 | 43.21567 | -73.36382 | 38996 ft | 414 kts | 351° |
| 2026-05-05 15:33 | 43.24522 | -73.36640 | 38487 ft | 409 kts | 351° |
| 2026-05-05 15:33 | 43.27536 | -73.36916 | 37953 ft | 404 kts | 351° |
| 2026-05-05 15:34 | 43.30057 | -73.37141 | 37413 ft | 403 kts | 351° |
| 2026-05-05 15:34 | 43.32664 | -73.37375 | 36893 ft | 401 kts | 351° |
| 2026-05-05 15:34 | 43.35723 | -73.37652 | 36392 ft | 399 kts | 351° |
| 2026-05-05 15:34 | 43.38766 | -73.37928 | 35848 ft | 400 kts | 350° |
| 2026-05-05 15:35 | 43.41625 | -73.38186 | 35350 ft | 403 kts | 351° |
| 2026-05-05 15:35 | 43.44465 | -73.38442 | 34854 ft | 405 kts | 350° |
| 2026-05-05 15:35 | 43.47391 | -73.38711 | 34316 ft | 407 kts | 350° |
| 2026-05-05 15:35 | 43.50462 | -73.38989 | 33745 ft | 409 kts | 350° |
| 2026-05-05 15:36 | 43.53212 | -73.39236 | 33227 ft | 410 kts | 350° |
| 2026-05-05 15:36 | 43.56191 | -73.39508 | 32676 ft | 411 kts | 350° |
| 2026-05-05 15:36 | 43.59233 | -73.39784 | 32108 ft | 412 kts | 351° |
| 2026-05-05 15:36 | 43.62198 | -73.40054 | 31559 ft | 413 kts | 351° |
| 2026-05-05 15:37 | 43.65063 | -73.40317 | 31028 ft | 414 kts | 351° |
| 2026-05-05 15:37 | 43.68067 | -73.40590 | 30480 ft | 414 kts | 351° |
| 2026-05-05 15:37 | 43.71126 | -73.40878 | 29926 ft | 413 kts | 350° |
| 2026-05-05 15:37 | 43.74056 | -73.41213 | 29398 ft | 412 kts | 349° |
| 2026-05-05 15:38 | 43.76990 | -73.41546 | 28866 ft | 411 kts | 349° |
| 2026-05-05 15:38 | 43.80096 | -73.41901 | 28302 ft | 410 kts | 349° |
| 2026-05-05 15:38 | 43.82933 | -73.42220 | 27787 ft | 408 kts | 349° |
| 2026-05-05 15:38 | 43.86029 | -73.42576 | 27226 ft | 407 kts | 349° |
| 2026-05-05 15:39 | 43.89027 | -73.42911 | 26682 ft | 405 kts | 349° |
| 2026-05-05 15:39 | 43.91843 | -73.43233 | 26169 ft | 403 kts | 349° |
| 2026-05-05 15:39 | 43.94881 | -73.43578 | 25620 ft | 401 kts | 349° |
| 2026-05-05 15:39 | 43.97922 | -73.43928 | 25064 ft | 399 kts | 349° |
| 2026-05-05 15:40 | 44.00830 | -73.44260 | 24528 ft | 397 kts | 349° |
| 2026-05-05 15:40 | 44.03671 | -73.44581 | 23993 ft | 394 kts | 349° |
| 2026-05-05 15:40 | 44.06745 | -73.44934 | 23422 ft | 392 kts | 348° |
| 2026-05-05 15:40 | 44.09739 | -73.45279 | 22868 ft | 389 kts | 348° |
| 2026-05-05 15:41 | 44.11342 | -73.45460 | 22564 ft | 388 kts | 349° |
| 2026-05-05 15:41 | 44.14117 | -73.45784 | 22029 ft | 385 kts | 348° |
| 2026-05-05 15:41 | 44.17041 | -73.46114 | 21525 ft | 380 kts | 348° |
| 2026-05-05 15:41 | 44.19783 | -73.46431 | 21084 ft | 376 kts | 348° |
| 2026-05-05 15:42 | 44.22409 | -73.46731 | 20656 ft | 372 kts | 348° |
| 2026-05-05 15:42 | 44.25138 | -73.47048 | 20208 ft | 368 kts | 348° |
| 2026-05-05 15:42 | 44.27983 | -73.47374 | 19738 ft | 364 kts | 347° |
| 2026-05-05 15:42 | 44.30753 | -73.47693 | 19267 ft | 360 kts | 347° |
| 2026-05-05 15:43 | 44.33225 | -73.47982 | 18859 ft | 357 kts | 347° |
| 2026-05-05 15:43 | 44.35918 | -73.48292 | 18406 ft | 354 kts | 347° |
| 2026-05-05 15:43 | 44.38598 | -73.48601 | 17955 ft | 351 kts | 347° |
| 2026-05-05 15:43 | 44.41192 | -73.48901 | 17517 ft | 348 kts | 347° |
| 2026-05-05 15:44 | 44.43619 | -73.49183 | 17107 ft | 346 kts | 347° |
| 2026-05-05 15:44 | 44.46262 | -73.49493 | 16668 ft | 344 kts | 347° |
| 2026-05-05 15:44 | 44.48780 | -73.49785 | 16236 ft | 341 kts | 347° |
| 2026-05-05 15:44 | 44.51155 | -73.50058 | 15838 ft | 340 kts | 347° |
| 2026-05-05 15:45 | 44.53590 | -73.50342 | 15423 ft | 338 kts | 347° |
| 2026-05-05 15:45 | 44.56187 | -73.50645 | 14973 ft | 336 kts | 347° |
| 2026-05-05 15:45 | 44.58660 | -73.50935 | 14546 ft | 333 kts | 347° |
| 2026-05-05 15:45 | 44.60915 | -73.51195 | 14179 ft | 331 kts | 347° |
| 2026-05-05 15:46 | 44.63357 | -73.51477 | 13857 ft | 326 kts | 347° |
| 2026-05-05 15:46 | 44.65881 | -73.51775 | 13566 ft | 327 kts | 347° |
| 2026-05-05 15:46 | 44.68208 | -73.52050 | 13312 ft | 330 kts | 347° |
| 2026-05-05 15:46 | 44.70483 | -73.52306 | 13068 ft | 334 kts | 349° |
| 2026-05-05 15:47 | 44.72990 | -73.52578 | 12802 ft | 332 kts | 346° |
| 2026-05-05 15:47 | 44.74654 | -73.52792 | 12644 ft | 333 kts | 347° |
| 2026-05-05 15:47 | 44.77796 | -73.53180 | 12353 ft | 334 kts | 347° |
| 2026-05-05 15:47 | 44.80200 | -73.53471 | 12122 ft | 334 kts | 347° |
| 2026-05-05 15:48 | 44.82655 | -73.53760 | 12050 ft | 328 kts | 347° |
| 2026-05-05 15:48 | 44.85075 | -73.54046 | 12034 ft | 321 kts | 347° |
| 2026-05-05 15:48 | 44.87307 | -73.54301 | 12029 ft | 318 kts | 347° |
| 2026-05-05 15:48 | 44.89538 | -73.54548 | 12035 ft | 317 kts | 347° |
| 2026-05-05 15:49 | 44.91922 | -73.54813 | 11876 ft | 322 kts | 347° |
| 2026-05-05 15:49 | 44.94323 | -73.55080 | 11684 ft | 327 kts | 347° |
| 2026-05-05 15:49 | 44.96651 | -73.55338 | 11489 ft | 331 kts | 347° |
| 2026-05-05 15:49 | 44.99020 | -73.55597 | 11280 ft | 333 kts | 347° |
| 2026-05-05 15:50 | 45.01545 | -73.55874 | 11062 ft | 335 kts | 347° |
| 2026-05-05 15:50 | 45.04029 | -73.56145 | 11017 ft | 330 kts | 347° |
| 2026-05-05 15:50 | 45.06306 | -73.56396 | 11009 ft | 326 kts | 347° |
| 2026-05-05 15:50 | 45.08598 | -73.56648 | 11007 ft | 322 kts | 347° |
| 2026-05-05 15:51 | 45.10952 | -73.56911 | 10998 ft | 320 kts | 347° |
| 2026-05-05 15:51 | 45.13301 | -73.57169 | 10993 ft | 316 kts | 347° |
| 2026-05-05 15:51 | 45.15499 | -73.57413 | 10673 ft | 315 kts | 347° |
| 2026-05-05 15:51 | 45.17734 | -73.57652 | 10214 ft | 302 kts | 346° |
| 2026-05-05 15:52 | 45.19947 | -73.57896 | 9738 ft | 291 kts | 346° |
| 2026-05-05 15:52 | 45.22036 | -73.58131 | 9277 ft | 283 kts | 346° |
| 2026-05-05 15:52 | 45.23969 | -73.58344 | 8842 ft | 277 kts | 346° |
| 2026-05-05 15:52 | 45.25951 | -73.58569 | 8385 ft | 272 kts | 346° |
| 2026-05-05 15:53 | 45.27954 | -73.58790 | 8048 ft | 264 kts | 346° |
| 2026-05-05 15:53 | 45.29858 | -73.58998 | 7999 ft | 258 kts | 346° |
| 2026-05-05 15:53 | 45.31642 | -73.59191 | 7847 ft | 258 kts | 345° |
| 2026-05-05 15:53 | 45.33454 | -73.59400 | 7425 ft | 257 kts | 346° |
| 2026-05-05 15:54 | 45.35334 | -73.59602 | 6995 ft | 256 kts | 346° |
| 2026-05-05 15:54 | 45.37167 | -73.59804 | 6597 ft | 253 kts | 346° |
| 2026-05-05 15:54 | 45.38914 | -73.59925 | 6275 ft | 254 kts | 358° |
| 2026-05-05 15:54 | 45.40600 | -73.58922 | 5979 ft | 265 kts | 33° |
| 2026-05-05 15:55 | 45.42182 | -73.57305 | 5629 ft | 262 kts | 31° |
| 2026-05-05 15:55 | 45.43738 | -73.55788 | 5270 ft | 261 kts | 31° |
| 2026-05-05 15:55 | 45.45242 | -73.54337 | 4939 ft | 259 kts | 31° |
| 2026-05-05 15:55 | 45.46832 | -73.52804 | 4588 ft | 257 kts | 31° |
| 2026-05-05 15:56 | 45.48400 | -73.51293 | 4240 ft | 256 kts | 32° |
| 2026-05-05 15:56 | 45.49929 | -73.49817 | 3896 ft | 254 kts | 33° |
| 2026-05-05 15:56 | 45.51412 | -73.48357 | 3576 ft | 252 kts | 33° |
| 2026-05-05 15:56 | 45.52940 | -73.46861 | 3493 ft | 238 kts | 32° |
| 2026-05-05 15:57 | 45.54328 | -73.45496 | 3474 ft | 223 kts | 32° |
| 2026-05-05 15:57 | 45.55593 | -73.44247 | 3482 ft | 219 kts | 32° |
| 2026-05-05 15:57 | 45.56874 | -73.43012 | 3479 ft | 213 kts | 24° |
| 2026-05-05 15:57 | 45.58358 | -73.42712 | 3490 ft | 187 kts | 334° |
| 2026-05-05 15:58 | 45.59525 | -73.43593 | 3492 ft | 172 kts | 316° |
| 2026-05-05 15:58 | 45.60510 | -73.44469 | 3514 ft | 167 kts | 316° |
| 2026-05-05 15:58 | 45.61563 | -73.45403 | 3508 ft | 171 kts | 316° |
| 2026-05-05 15:58 | 45.62369 | -73.46680 | 3483 ft | 151 kts | 278° |
| 2026-05-05 15:59 | 45.62522 | -73.48190 | 3410 ft | 152 kts | 268° |
| 2026-05-05 15:59 | 45.62640 | -73.49709 | 3193 ft | 156 kts | 269° |
| 2026-05-05 15:59 | 45.62580 | -73.51290 | 2992 ft | 138 kts | 240° |
| 2026-05-05 15:59 | 45.61984 | -73.52361 | 2994 ft | 119 kts | 231° |
| 2026-05-05 16:00 | 45.61455 | -73.53254 | 2993 ft | 115 kts | 229° |
| 2026-05-05 16:00 | 45.60885 | -73.54124 | 2870 ft | 121 kts | 226° |
| 2026-05-05 16:00 | 45.60265 | -73.55019 | 2665 ft | 117 kts | 226° |
| 2026-05-05 16:00 | 45.59682 | -73.55836 | 2507 ft | 109 kts | 225° |
| 2026-05-05 16:01 | 45.59156 | -73.56548 | 2478 ft | 100 kts | 224° |
| 2026-05-05 16:01 | 45.58658 | -73.57220 | 2482 ft | 96 kts | 225° |
| 2026-05-05 16:01 | 45.58171 | -73.57880 | 2487 ft | 94 kts | 225° |
| 2026-05-05 16:01 | 45.57675 | -73.58529 | 2487 ft | 94 kts | 225° |
| 2026-05-05 16:02 | 45.57194 | -73.59161 | 2486 ft | 94 kts | 225° |
| 2026-05-05 16:02 | 45.56717 | -73.59789 | 2444 ft | 97 kts | 225° |
| 2026-05-05 16:02 | 45.56175 | -73.60504 | 2344 ft | 104 kts | 225° |
| 2026-05-05 16:02 | 45.55634 | -73.61185 | 2277 ft | 96 kts | 222° |
| 2026-05-05 16:03 | 45.55137 | -73.61785 | 2119 ft | 97 kts | 223° |
| 2026-05-05 16:03 | 45.54642 | -73.62479 | 1960 ft | 97 kts | 224° |
| 2026-05-05 16:03 | 45.54121 | -73.63180 | 1797 ft | 97 kts | 224° |
| 2026-05-05 16:03 | 45.53612 | -73.63848 | 1669 ft | 94 kts | 224° |
| 2026-05-05 16:04 | 45.53145 | -73.64472 | 1551 ft | 95 kts | 225° |
| 2026-05-05 16:04 | 45.52638 | -73.65133 | 1462 ft | 95 kts | 220° |
| 2026-05-05 16:04 | 45.52258 | -73.65625 | 1352 ft | 95 kts | 222° |
| 2026-05-05 16:04 | 45.51767 | -73.66284 | 1231 ft | 97 kts | 224° |
| 2026-05-05 16:05 | 45.51300 | -73.66917 | 1134 ft | 98 kts | 221° |
| 2026-05-05 16:05 | 45.50765 | -73.67581 | 976 ft | 104 kts | 223° |
| 2026-05-05 16:05 | 45.50206 | -73.68350 | 861 ft | 102 kts | 221° |
| 2026-05-05 16:05 | 45.49643 | -73.69061 | 704 ft | 105 kts | 224° |
| 2026-05-05 16:06 | 45.49117 | -73.69718 | 571 ft | 104 kts | 225° |
| 2026-05-05 16:06 | 45.48555 | -73.70473 | 409 ft | 103 kts | 225° |
| 2026-05-05 16:06 | 45.47982 | -73.71217 | 246 ft | 102 kts | 224° |
| 2026-05-05 16:06 | 45.47465 | -73.71907 | 136 ft | 92 kts | 223° |
| 2026-05-05 16:07 | 45.47052 | -73.72469 | 113 ft | 74 kts | 223° |
| 2026-05-05 16:07 | 45.46698 | -73.72945 | 107 ft | 46 kts | 225° |
| 2026-05-05 16:07 | 45.46582 | -73.73317 | 106 ft | 33 kts | 251° |
| 2026-05-05 16:07 | 45.46579 | -73.73470 | 105 ft | 12 kts | 38° |
| 2026-05-05 16:08 | 45.46651 | -73.73371 | 106 ft | 17 kts | 42° |
| 2026-05-05 16:08 | 45.46764 | -73.73223 | 106 ft | 21 kts | 41° |
| 2026-05-05 16:08 | 45.46891 | -73.73055 | 107 ft | 22 kts | 43° |
| 2026-05-05 16:08 | 45.47001 | -73.72910 | 109 ft | 23 kts | 43° |
| 2026-05-05 16:09 | 45.47137 | -73.72733 | 111 ft | 25 kts | 44° |
| 2026-05-05 16:09 | 45.47286 | -73.72555 | 114 ft | 25 kts | 35° |
| 2026-05-05 16:09 | 45.47410 | -73.72373 | 118 ft | 24 kts | 43° |
| 2026-05-05 16:09 | 45.47527 | -73.72221 | 121 ft | 24 kts | 43° |
| 2026-05-05 16:10 | 45.47668 | -73.72042 | 122 ft | 26 kts | 41° |
| 2026-05-05 16:10 | 45.47805 | -73.71848 | 125 ft | 22 kts | 62° |
| 2026-05-05 16:10 | 45.47736 | -73.71689 | 128 ft | 18 kts | 130° |
| 2026-05-05 16:10 | 45.47655 | -73.71553 | 131 ft | 19 kts | 128° |
| 2026-05-05 16:11 | 45.47549 | -73.71430 | 133 ft | 17 kts | 202° |
| 2026-05-05 16:11 | 45.47212 | -73.71873 | 125 ft | 24 kts | 222° |
| 2026-05-05 16:12 | 45.47068 | -73.72066 | 121 ft | 26 kts | 225° |
| 2026-05-05 16:12 | 45.46936 | -73.72050 | 120 ft | 9 kts | 88° |
| 2026-05-05 16:13 | 45.46962 | -73.72018 | 121 ft | 0 kts | 334° |